Accueil
METAR-TAF:

METAR-TAF

Aéroports :

St Athan, Pays de Galles

latitude: 51-24N, longitude: 003-26W, altitude: 50 m

Observation

Le bulletin a été fait il y a 30 minutes, à 04:50 UTC
Vent 9 kt de ouest
Température 10°C
Humidité 93%
Pression 1020 hPa
Visibilité 10 km ou plus

METAR: EGDX 160450Z AUTO 27009KT 9999 FEW004/// BKN016/// 10/09 Q1020 RERA

Heure: 05:20 (05:20 UTC)

Prévision

Le bulletin a été fait il y a 16 heures et 4 minutes, à 13:16 UTC
Prévision valable du 15 à 15 UTC au 15 à 18 UTC
Vent 8 kt de est
Visibilité 10 km ou plus
pas de nuages en-dessous de 1500 mètres et pas de cumulonimbus.

TAF: EGDX 151316Z 1515/1518 09008KT CAVOK

Observations et prévisions météorologiques de plus de 4000 aéroports (messages METAR et TAF).

Les stations disponibles sont représentées par des disques jaunes et rouges sur la carte.

Passer la souris dessus pour voir le nom de la station.

Cliquer dessus pour voir les observations et prévisions météorologiques.

Pour changer de carte: cliquez sur les boutons verts avec une croix noire pour zoomer, sur le bouton vert avec un tiret pour effectuer un zoom arrière, ou sur les flèches vertes pour les cartes adjacentes.


METAR-TAF: